createdAt,value
2019-01-13T00:00:11.630Z,99.99
2019-01-13T00:01:05.330Z,99.99
2019-01-13T00:02:05.388Z,99.99
2019-01-13T00:03:05.429Z,99.99
2019-01-13T00:04:05.496Z,99.99
2019-01-13T00:05:05.560Z,99.99
2019-01-13T00:06:05.586Z,99.99
2019-01-13T00:07:05.636Z,99.99
2019-01-13T00:08:05.720Z,99.99
2019-01-13T00:09:05.742Z,99.99
2019-01-13T00:10:05.818Z,99.99
2019-01-13T00:11:05.833Z,99.99
2019-01-13T00:12:05.924Z,99.99
2019-01-13T00:13:05.968Z,99.99
2019-01-13T00:14:05.960Z,99.99
2019-01-13T00:15:06.049Z,99.99
2019-01-13T00:16:06.112Z,99.99
2019-01-13T00:17:06.116Z,99.99
2019-01-13T00:18:06.166Z,99.99
2019-01-13T00:19:06.215Z,99.99
2019-01-13T00:20:06.247Z,99.99
2019-01-13T00:21:06.322Z,99.99
2019-01-13T00:22:06.352Z,99.99
2019-01-13T00:23:06.599Z,99.99
2019-01-13T00:24:06.460Z,99.99
2019-01-13T00:25:06.515Z,99.99
2019-01-13T00:26:06.551Z,99.99
2019-01-13T00:27:06.590Z,99.99
2019-01-13T00:28:06.623Z,99.99
2019-01-13T00:29:08.095Z,99.99
2019-01-13T00:30:06.730Z,99.99
2019-01-13T00:31:06.785Z,99.99
2019-01-13T00:32:06.850Z,99.99
2019-01-13T00:33:07.132Z,99.99
2019-01-13T00:34:06.928Z,99.99
2019-01-13T00:35:06.995Z,99.99
2019-01-13T00:36:07.075Z,99.99
2019-01-13T00:37:07.087Z,99.99
2019-01-13T00:38:07.316Z,99.99
2019-01-13T00:39:07.161Z,99.99
2019-01-13T00:40:07.260Z,99.99
2019-01-13T00:41:07.269Z,99.99
2019-01-13T00:42:07.319Z,99.99
2019-01-13T00:43:07.380Z,99.99
2019-01-13T00:44:07.420Z,99.99
2019-01-13T00:45:07.465Z,99.99
2019-01-13T00:46:07.516Z,99.99
2019-01-13T00:47:07.548Z,99.99
2019-01-13T00:48:07.620Z,99.99
2019-01-13T00:49:07.635Z,99.99
2019-01-13T00:50:07.701Z,99.99
2019-01-13T00:51:07.756Z,99.99
2019-01-13T00:52:07.807Z,99.99
2019-01-13T00:53:07.849Z,99.99
2019-01-13T00:54:07.889Z,99.99
2019-01-13T00:55:07.961Z,99.99
2019-01-13T00:56:07.967Z,99.99
2019-01-13T00:57:08.044Z,99.99
2019-01-13T00:58:08.090Z,99.99
2019-01-13T00:59:08.150Z,99.99
2019-01-13T01:00:08.214Z,99.99
2019-01-13T01:01:08.287Z,99.99
2019-01-13T01:02:08.278Z,99.99
2019-01-13T01:03:08.336Z,99.99
2019-01-13T01:04:08.383Z,99.99
2019-01-13T01:05:08.417Z,99.99
2019-01-13T01:06:08.467Z,99.99
2019-01-13T01:07:08.492Z,99.99
2019-01-13T01:08:08.592Z,99.99
2019-01-13T01:09:08.594Z,99.99
2019-01-13T01:10:08.641Z,99.99
2019-01-13T01:11:08.719Z,99.99
2019-01-13T01:12:08.742Z,99.99
2019-01-13T01:13:08.814Z,99.99
2019-01-13T01:14:08.910Z,99.99
2019-01-13T01:15:08.909Z,99.99
2019-01-13T01:16:08.944Z,99.99
2019-01-13T01:17:09.001Z,99.99
2019-01-13T01:18:09.060Z,99.99
2019-01-13T01:19:09.104Z,99.99
2019-01-13T01:20:09.144Z,99.99
2019-01-13T01:21:09.208Z,99.99
2019-01-13T01:22:09.241Z,99.99
2019-01-13T01:23:09.306Z,99.99
2019-01-13T01:24:09.338Z,99.99
2019-01-13T01:25:09.383Z,99.99
2019-01-13T01:26:09.482Z,99.99
2019-01-13T01:27:09.484Z,99.99
2019-01-13T01:28:09.518Z,99.99
2019-01-13T01:29:09.579Z,99.99
2019-01-13T01:30:09.634Z,99.99
2019-01-13T01:31:09.682Z,99.99
2019-01-13T01:32:09.713Z,99.99
2019-01-13T01:33:09.777Z,99.99
2019-01-13T01:34:09.818Z,99.99
2019-01-13T01:35:09.854Z,99.99
2019-01-13T01:36:09.960Z,99.99
2019-01-13T01:37:09.950Z,99.99
2019-01-13T01:38:10.041Z,99.99
2019-01-13T01:39:10.085Z,99.99
2019-01-13T01:40:10.116Z,99.99
2019-01-13T01:41:10.155Z,99.99
2019-01-13T01:42:10.192Z,99.99
2019-01-13T01:43:10.243Z,99.99
2019-01-13T01:44:10.330Z,99.99
2019-01-13T01:45:10.322Z,99.99
2019-01-13T01:46:10.378Z,99.99
2019-01-13T01:47:10.435Z,99.99
2019-01-13T01:48:10.480Z,99.99
2019-01-13T01:49:10.536Z,99.99
2019-01-13T01:50:10.586Z,99.99
2019-01-13T01:51:10.631Z,99.99
2019-01-13T01:52:10.679Z,99.99
2019-01-13T01:53:10.730Z,99.99
2019-01-13T01:54:10.769Z,99.99
2019-01-13T01:55:10.821Z,99.99
2019-01-13T01:56:10.867Z,99.99
2019-01-13T01:57:10.931Z,99.99
2019-01-13T01:58:10.981Z,99.99
2019-01-13T01:59:11.054Z,99.99
2019-01-13T02:00:11.045Z,99.99
2019-01-13T02:01:11.108Z,99.99
2019-01-13T02:02:11.143Z,99.99
2019-01-13T02:03:11.207Z,99.99
2019-01-13T02:04:11.280Z,99.99
2019-01-13T02:05:11.373Z,99.99
2019-01-13T02:06:11.427Z,99.99
2019-01-13T02:07:11.374Z,99.99
2019-01-13T02:08:11.532Z,99.99
2019-01-13T02:09:11.503Z,99.99
2019-01-13T02:10:11.534Z,99.99
2019-01-13T02:11:11.600Z,99.99
2019-01-13T02:12:11.636Z,99.99
2019-01-13T02:13:11.726Z,99.99
2019-01-13T02:14:11.725Z,99.99
2019-01-13T02:15:11.750Z,99.99
2019-01-13T02:16:11.863Z,99.99
2019-01-13T02:17:11.855Z,99.99
2019-01-13T02:18:11.898Z,99.99
2019-01-13T02:19:11.991Z,99.99
2019-01-13T02:20:12.043Z,99.99
2019-01-13T02:21:12.068Z,99.99
2019-01-13T02:22:12.098Z,99.99
2019-01-13T02:23:12.170Z,99.99
2019-01-13T02:24:12.214Z,99.99
2019-01-13T02:25:12.247Z,99.99
2019-01-13T02:26:12.306Z,99.99
2019-01-13T02:27:12.336Z,99.99
2019-01-13T02:28:12.415Z,99.99
2019-01-13T02:29:12.418Z,99.99
2019-01-13T02:30:12.517Z,99.99
2019-01-13T02:31:12.549Z,99.99
2019-01-13T02:32:12.568Z,99.99
2019-01-13T02:33:12.671Z,99.99
2019-01-13T02:34:12.676Z,99.99
2019-01-13T02:35:12.706Z,99.99
2019-01-13T02:36:12.761Z,99.99
2019-01-13T02:37:12.841Z,99.99
2019-01-13T02:38:12.856Z,99.99
2019-01-13T02:39:12.923Z,99.99
2019-01-13T02:40:12.954Z,99.99
2019-01-13T02:41:13.042Z,99.99
2019-01-13T02:42:13.067Z,99.99
2019-01-13T02:43:13.176Z,99.99
2019-01-13T02:44:13.139Z,99.99
2019-01-13T02:45:13.206Z,99.99
2019-01-13T02:46:13.246Z,99.99
2019-01-13T02:47:13.295Z,99.99
2019-01-13T02:48:13.318Z,99.99
2019-01-13T02:49:13.399Z,99.99
2019-01-13T02:50:13.423Z,99.99
2019-01-13T02:51:13.479Z,99.99
2019-01-13T02:52:13.528Z,99.99
2019-01-13T02:53:13.572Z,99.99
2019-01-13T02:54:13.624Z,99.99
2019-01-13T02:55:13.677Z,99.99
2019-01-13T02:56:13.736Z,99.99
2019-01-13T02:57:13.785Z,99.99
2019-01-13T02:58:13.828Z,99.99
2019-01-13T02:59:13.892Z,99.99
2019-01-13T03:00:13.893Z,99.99
2019-01-13T03:01:13.967Z,99.99
2019-01-13T03:02:14.072Z,99.99
2019-01-13T03:03:14.062Z,99.99
2019-01-13T03:04:14.107Z,99.99
2019-01-13T03:05:14.139Z,99.99
2019-01-13T03:06:14.175Z,99.99
2019-01-13T03:07:14.252Z,99.99
2019-01-13T03:08:14.283Z,99.99
2019-01-13T03:09:14.338Z,99.99
2019-01-13T03:10:14.392Z,99.99
2019-01-13T03:11:14.434Z,99.99
2019-01-13T03:12:14.469Z,99.99
2019-01-13T03:13:14.528Z,99.99
2019-01-13T03:14:14.551Z,99.99
2019-01-13T03:15:19.309Z,99.99
2019-01-13T03:16:14.714Z,99.99
2019-01-13T03:17:14.725Z,99.99
2019-01-13T03:18:14.771Z,99.99
2019-01-13T03:19:14.823Z,99.99
2019-01-13T03:20:14.866Z,99.99
2019-01-13T03:21:14.882Z,99.99
2019-01-13T03:22:14.937Z,99.99
2019-01-13T03:23:15.036Z,99.99
2019-01-13T03:24:15.033Z,99.99
2019-01-13T03:25:15.091Z,99.99
2019-01-13T03:26:15.230Z,99.99
2019-01-13T03:27:15.227Z,99.99
2019-01-13T03:28:15.280Z,99.99
2019-01-13T03:29:15.268Z,99.99
2019-01-13T03:30:15.330Z,99.99
2019-01-13T03:31:15.365Z,99.99
2019-01-13T03:32:15.426Z,99.99
2019-01-13T03:33:15.473Z,99.99
2019-01-13T03:34:15.527Z,99.99
2019-01-13T03:35:15.562Z,99.99
2019-01-13T03:36:15.613Z,99.99
2019-01-13T03:37:15.660Z,99.99
2019-01-13T03:38:15.769Z,99.99
2019-01-13T03:39:15.742Z,99.99
2019-01-13T03:40:15.787Z,99.99
2019-01-13T03:41:15.837Z,99.99
2019-01-13T03:42:15.929Z,99.99
2019-01-13T03:43:15.936Z,99.99
2019-01-13T03:44:15.970Z,99.99
2019-01-13T03:45:16.042Z,99.99
2019-01-13T03:46:16.092Z,99.99
2019-01-13T03:47:16.126Z,99.99
2019-01-13T03:48:16.168Z,99.99
2019-01-13T03:49:16.215Z,99.99
2019-01-13T03:50:16.262Z,99.99
2019-01-13T03:51:16.324Z,99.99
2019-01-13T03:52:16.361Z,99.99
2019-01-13T03:53:16.432Z,99.99
2019-01-13T03:54:16.566Z,99.99
2019-01-13T03:55:16.512Z,99.99
2019-01-13T03:56:16.563Z,99.99
2019-01-13T03:57:16.598Z,99.99
2019-01-13T03:58:16.660Z,99.99
2019-01-13T03:59:16.703Z,99.99
2019-01-13T04:00:16.757Z,99.99
2019-01-13T04:01:18.613Z,99.99
2019-01-13T04:02:16.853Z,99.99
2019-01-13T04:03:16.893Z,99.99
2019-01-13T04:04:16.938Z,99.99
2019-01-13T04:05:16.998Z,99.99
2019-01-13T04:06:17.014Z,99.99
2019-01-13T04:07:17.086Z,99.99
2019-01-13T04:08:17.117Z,99.99
2019-01-13T04:09:17.166Z,99.99
2019-01-13T04:10:17.206Z,99.99
2019-01-13T04:11:17.279Z,99.99
2019-01-13T04:12:17.374Z,99.99
2019-01-13T04:13:17.368Z,99.99
2019-01-13T04:14:17.449Z,99.99
2019-01-13T04:15:17.464Z,99.99
2019-01-13T04:16:17.497Z,99.99
2019-01-13T04:17:17.547Z,99.99
2019-01-13T04:18:17.607Z,99.99
2019-01-13T04:19:17.694Z,99.99
2019-01-13T04:20:17.710Z,99.99
2019-01-13T04:21:17.753Z,99.99
2019-01-13T04:22:17.818Z,99.99
2019-01-13T04:23:17.831Z,99.99
2019-01-13T04:24:17.899Z,99.99
2019-01-13T04:25:17.929Z,99.99
2019-01-13T04:26:17.979Z,99.99
2019-01-13T04:27:18.036Z,99.99
2019-01-13T04:28:18.070Z,99.99
2019-01-13T04:29:18.127Z,99.99
2019-01-13T04:30:18.161Z,99.99
2019-01-13T04:31:18.234Z,99.99
2019-01-13T04:32:18.265Z,99.99
2019-01-13T04:33:18.318Z,99.99
2019-01-13T04:34:18.373Z,99.99
2019-01-13T04:35:18.399Z,99.99
2019-01-13T04:36:18.461Z,99.99
2019-01-13T04:37:18.525Z,99.99
2019-01-13T04:38:18.558Z,99.99
2019-01-13T04:39:18.622Z,99.99
2019-01-13T04:40:18.738Z,99.99
2019-01-13T04:41:18.701Z,99.99
2019-01-13T04:42:18.726Z,99.99
2019-01-13T04:43:18.792Z,99.99
2019-01-13T04:44:18.844Z,99.99
2019-01-13T04:45:18.889Z,99.99
2019-01-13T04:46:18.917Z,99.99
2019-01-13T04:47:18.981Z,99.99
2019-01-13T04:48:19.014Z,99.99
2019-01-13T04:49:19.085Z,99.99
2019-01-13T04:50:19.116Z,99.99
2019-01-13T04:51:19.168Z,99.99
2019-01-13T04:52:19.230Z,99.99
2019-01-13T04:53:19.277Z,99.99
2019-01-13T04:54:19.306Z,99.99
2019-01-13T04:55:19.382Z,99.99
2019-01-13T04:56:19.408Z,99.99
2019-01-13T04:57:19.459Z,99.99
2019-01-13T04:58:19.521Z,99.99
2019-01-13T04:59:19.590Z,99.99
2019-01-13T05:00:19.620Z,99.99
2019-01-13T05:01:19.647Z,99.99
2019-01-13T05:02:19.686Z,99.99
2019-01-13T05:03:19.889Z,99.99
2019-01-13T05:04:19.795Z,99.99
2019-01-13T05:05:19.833Z,99.99
2019-01-13T05:06:19.874Z,99.99
2019-01-13T05:07:19.982Z,99.99
2019-01-13T05:08:19.972Z,99.99
2019-01-13T05:09:20.062Z,99.99
2019-01-13T05:10:20.077Z,99.99
2019-01-13T05:11:20.139Z,99.99
2019-01-13T05:12:20.153Z,99.99
2019-01-13T05:13:20.215Z,99.99
2019-01-13T05:14:20.262Z,99.99
2019-01-13T05:15:20.341Z,99.99
2019-01-13T05:16:20.360Z,99.99
2019-01-13T05:17:20.400Z,99.99
2019-01-13T05:18:20.462Z,99.99
2019-01-13T05:19:20.597Z,99.99
2019-01-13T05:20:20.574Z,99.99
2019-01-13T05:21:20.591Z,99.99
2019-01-13T05:22:20.650Z,99.99
2019-01-13T05:23:20.733Z,99.99
2019-01-13T05:24:20.755Z,99.99
2019-01-13T05:25:20.797Z,99.99
2019-01-13T05:26:20.849Z,99.99
2019-01-13T05:27:20.899Z,99.99
2019-01-13T05:28:20.960Z,99.99
2019-01-13T05:29:20.994Z,99.99
2019-01-13T05:30:21.038Z,99.99
2019-01-13T05:31:21.111Z,99.99
2019-01-13T05:32:21.166Z,99.99
2019-01-13T05:33:21.219Z,99.99
2019-01-13T05:34:21.204Z,99.99
2019-01-13T05:35:21.260Z,99.99
2019-01-13T05:36:21.301Z,99.99
2019-01-13T05:37:21.400Z,99.99
2019-01-13T05:38:21.400Z,99.99
2019-01-13T05:39:21.505Z,99.99
2019-01-13T05:40:21.498Z,99.99
2019-01-13T05:41:21.544Z,99.99
2019-01-13T05:42:21.607Z,99.99
2019-01-13T05:43:21.646Z,99.99
2019-01-13T05:44:21.723Z,99.99
2019-01-13T05:45:21.812Z,99.99
2019-01-13T05:46:21.810Z,99.99
2019-01-13T05:47:21.873Z,99.99
2019-01-13T05:48:21.906Z,99.99
2019-01-13T05:49:21.950Z,99.99
2019-01-13T05:50:21.975Z,99.99
2019-01-13T05:51:22.030Z,99.99
2019-01-13T05:52:22.106Z,99.99
2019-01-13T05:53:22.131Z,99.99
2019-01-13T05:54:22.182Z,99.99
2019-01-13T05:55:22.400Z,99.99
2019-01-13T05:56:22.283Z,99.99
2019-01-13T05:57:22.332Z,99.99
2019-01-13T05:58:22.351Z,99.99
2019-01-13T05:59:22.441Z,99.99
2019-01-13T06:00:22.492Z,99.99
2019-01-13T06:01:22.537Z,99.99
2019-01-13T06:02:22.543Z,99.99
2019-01-13T06:03:22.600Z,99.99
2019-01-13T06:04:22.638Z,99.99
2019-01-13T06:05:22.716Z,99.99
2019-01-13T06:06:22.755Z,99.99
2019-01-13T06:07:22.808Z,99.99
2019-01-13T06:08:22.852Z,99.99
2019-01-13T06:09:22.896Z,99.99
2019-01-13T06:10:22.947Z,99.99
2019-01-13T06:11:23.005Z,99.99
2019-01-13T06:12:23.049Z,99.99
2019-01-13T06:13:23.084Z,99.99
2019-01-13T06:14:23.130Z,99.99
2019-01-13T06:15:23.176Z,99.99
2019-01-13T06:16:23.218Z,99.99
2019-01-13T06:17:23.269Z,99.99
2019-01-13T06:18:23.329Z,99.99
2019-01-13T06:19:23.352Z,99.99
2019-01-13T06:20:23.409Z,99.99
2019-01-13T06:21:23.450Z,99.99
2019-01-13T06:22:23.515Z,99.99
2019-01-13T06:23:23.545Z,99.99
2019-01-13T06:24:23.648Z,99.99
2019-01-13T06:25:23.647Z,99.99
2019-01-13T06:26:23.713Z,99.99
2019-01-13T06:27:23.737Z,99.99
2019-01-13T06:28:23.799Z,99.99
2019-01-13T06:29:23.845Z,99.99
2019-01-13T06:30:23.912Z,99.99
2019-01-13T06:31:23.940Z,99.99
2019-01-13T06:32:24.011Z,99.99
2019-01-13T06:33:24.022Z,99.99
2019-01-13T06:34:24.075Z,99.99
2019-01-13T06:36:24.157Z,99.99
2019-01-13T06:37:24.204Z,99.99
2019-01-13T06:38:24.309Z,99.99
2019-01-13T06:39:24.329Z,99.99
2019-01-13T06:40:24.339Z,99.99
2019-01-13T06:41:24.415Z,99.99
2019-01-13T06:42:24.431Z,99.99
2019-01-13T06:43:24.498Z,99.99
2019-01-13T06:44:24.626Z,99.99
2019-01-13T06:45:24.616Z,99.99
2019-01-13T06:46:24.643Z,99.99
2019-01-13T06:47:24.695Z,99.99
2019-01-13T06:48:24.750Z,99.99
2019-01-13T06:49:24.791Z,99.99
2019-01-13T06:50:24.836Z,99.99
2019-01-13T06:51:24.884Z,99.99
2019-01-13T06:52:24.937Z,99.99
2019-01-13T06:53:24.954Z,99.99
2019-01-13T06:54:25.031Z,99.99
2019-01-13T06:55:25.263Z,99.99
2019-01-13T06:56:25.112Z,99.99
2019-01-13T06:57:25.156Z,99.99
2019-01-13T06:58:25.202Z,99.99
2019-01-13T06:59:25.288Z,99.99
2019-01-13T07:00:25.295Z,99.99
2019-01-13T07:01:25.330Z,99.99
2019-01-13T07:02:25.445Z,99.99
2019-01-13T07:03:25.457Z,99.99
2019-01-13T07:04:25.497Z,99.99
2019-01-13T07:05:25.537Z,99.99
2019-01-13T07:06:25.732Z,99.99
2019-01-13T07:07:25.626Z,99.99
2019-01-13T07:08:25.691Z,99.99
2019-01-13T07:09:25.731Z,99.99
2019-01-13T07:10:25.781Z,99.99
2019-01-13T07:11:25.835Z,99.99
2019-01-13T07:12:25.913Z,99.99
2019-01-13T07:13:25.938Z,99.99
2019-01-13T07:14:25.954Z,99.99
2019-01-13T07:15:26.056Z,99.99
2019-01-13T07:16:26.063Z,99.99
2019-01-13T07:17:26.092Z,99.99
2019-01-13T07:18:26.158Z,99.99
2019-01-13T07:19:26.237Z,99.99
2019-01-13T07:20:26.243Z,99.99
2019-01-13T07:21:26.331Z,99.99
2019-01-13T07:22:26.349Z,99.99
2019-01-13T07:23:26.380Z,99.99
2019-01-13T07:24:26.588Z,99.99
2019-01-13T07:25:26.471Z,99.99
2019-01-13T07:26:26.533Z,99.99
2019-01-13T07:27:26.592Z,99.99
2019-01-13T07:28:26.611Z,99.99
2019-01-13T07:29:26.663Z,99.99
2019-01-13T07:30:26.787Z,99.99
2019-01-13T07:31:26.777Z,99.99
2019-01-13T07:32:26.788Z,99.99
2019-01-13T07:33:26.853Z,99.99
2019-01-13T07:34:26.911Z,99.99
2019-01-13T07:35:26.957Z,99.99
2019-01-13T07:36:26.992Z,99.99
2019-01-13T07:37:27.038Z,99.99
2019-01-13T07:38:27.105Z,99.99
2019-01-13T07:39:27.144Z,99.99
2019-01-13T07:40:27.174Z,99.99
2019-01-13T07:41:27.257Z,99.99
2019-01-13T07:42:27.287Z,99.99
2019-01-13T07:43:27.315Z,99.99
2019-01-13T07:44:27.386Z,99.99
2019-01-13T07:45:27.458Z,99.99
2019-01-13T07:46:27.488Z,99.99
2019-01-13T07:47:27.520Z,99.99
2019-01-13T07:48:27.723Z,99.99
2019-01-13T07:49:27.603Z,99.99
2019-01-13T07:50:27.706Z,99.99
2019-01-13T07:51:27.723Z,99.99
2019-01-13T07:52:27.794Z,99.99
2019-01-13T07:53:27.841Z,99.99
2019-01-13T07:54:27.849Z,99.99
2019-01-13T07:55:27.886Z,99.99
2019-01-13T07:56:27.927Z,99.99
2019-01-13T07:57:27.973Z,99.99
2019-01-13T07:58:28.057Z,99.99
2019-01-13T07:59:28.074Z,99.99
2019-01-13T08:00:28.136Z,99.99
2019-01-13T08:01:28.225Z,99.99
2019-01-13T08:02:28.225Z,99.99
2019-01-13T08:03:28.275Z,99.99
2019-01-13T08:04:28.314Z,99.99
2019-01-13T08:05:28.391Z,99.99
2019-01-13T08:06:28.406Z,99.99
2019-01-13T08:07:28.451Z,99.99
2019-01-13T08:08:28.503Z,99.99
2019-01-13T08:09:28.568Z,99.99
2019-01-13T08:10:28.602Z,99.99
2019-01-13T08:11:28.730Z,99.99
2019-01-13T08:12:28.709Z,99.99
2019-01-13T08:13:28.728Z,99.99
2019-01-13T08:14:28.835Z,99.99
2019-01-13T08:15:28.831Z,99.99
2019-01-13T08:16:28.866Z,99.99
2019-01-13T08:17:28.963Z,99.99
2019-01-13T08:18:28.969Z,99.99
2019-01-13T08:19:29.049Z,99.99
2019-01-13T08:20:29.109Z,99.99
2019-01-13T08:21:29.128Z,99.99
2019-01-13T08:22:29.261Z,99.99
2019-01-13T08:23:29.262Z,99.99
2019-01-13T08:24:29.279Z,99.99
2019-01-13T08:25:29.306Z,99.99
2019-01-13T08:26:29.419Z,99.99
2019-01-13T08:27:29.408Z,99.99
2019-01-13T08:28:29.422Z,99.99
2019-01-13T08:29:29.488Z,99.99
2019-01-13T08:30:29.547Z,99.99
2019-01-13T08:31:29.578Z,99.99
2019-01-13T08:32:29.616Z,99.99
2019-01-13T08:33:29.806Z,99.99
2019-01-13T08:34:29.733Z,99.99
2019-01-13T08:35:29.821Z,99.99
2019-01-13T08:36:29.835Z,99.99
2019-01-13T08:37:29.882Z,99.99
2019-01-13T08:38:29.934Z,99.99
2019-01-13T08:39:29.995Z,99.99
2019-01-13T08:40:30.035Z,99.99
2019-01-13T08:41:30.064Z,99.99
2019-01-13T08:42:30.120Z,99.99
2019-01-13T08:43:30.149Z,99.99
2019-01-13T08:44:30.211Z,99.99
2019-01-13T08:45:30.250Z,99.99
2019-01-13T08:46:30.304Z,99.99
2019-01-13T08:47:30.333Z,99.99
2019-01-13T08:48:30.373Z,99.99
2019-01-13T08:49:31.641Z,99.99
2019-01-13T08:50:30.523Z,99.99
2019-01-13T08:51:31.740Z,99.99
2019-01-13T08:52:30.587Z,99.99
2019-01-13T08:53:30.627Z,99.99
2019-01-13T08:54:30.671Z,99.99
2019-01-13T08:55:30.711Z,99.99
2019-01-13T08:56:30.769Z,99.99
2019-01-13T08:57:30.806Z,99.99
2019-01-13T08:58:30.861Z,99.99
2019-01-13T08:59:30.950Z,99.99
2019-01-13T09:00:30.983Z,99.99
2019-01-13T09:01:31.003Z,99.99
2019-01-13T09:02:32.266Z,99.99
2019-01-13T09:03:31.078Z,99.99
2019-01-13T09:04:31.143Z,99.99
2019-01-13T09:05:31.175Z,99.99
2019-01-13T09:06:31.278Z,99.99
2019-01-13T09:07:31.386Z,99.99
2019-01-13T09:08:31.311Z,99.99
2019-01-13T09:09:31.415Z,99.99
2019-01-13T09:10:31.442Z,99.99
2019-01-13T09:11:31.464Z,99.99
2019-01-13T09:12:31.520Z,99.99
2019-01-13T09:13:31.595Z,99.99
2019-01-13T09:14:31.618Z,99.99
2019-01-13T09:15:31.659Z,99.99
2019-01-13T09:16:31.700Z,99.99
2019-01-13T09:17:31.765Z,99.99
2019-01-13T09:18:31.938Z,99.99
2019-01-13T09:19:31.839Z,99.99
2019-01-13T09:20:31.889Z,99.99
2019-01-13T09:21:31.915Z,99.99
2019-01-13T09:22:32.021Z,99.99
2019-01-13T09:23:32.036Z,99.99
2019-01-13T09:24:32.065Z,99.99
2019-01-13T09:25:32.150Z,99.99
2019-01-13T09:26:32.167Z,99.99
2019-01-13T09:27:32.222Z,99.99
2019-01-13T09:28:32.280Z,99.99
2019-01-13T09:29:32.328Z,99.99
2019-01-13T09:30:32.362Z,99.99
2019-01-13T09:31:32.395Z,99.99
2019-01-13T09:32:39.247Z,99.99
2019-01-13T09:33:32.517Z,99.99
2019-01-13T09:34:32.534Z,99.99
2019-01-13T09:35:32.611Z,99.99
2019-01-13T09:36:32.616Z,99.99
2019-01-13T09:37:32.690Z,99.99
2019-01-13T09:38:32.743Z,99.99
2019-01-13T09:39:32.788Z,99.99
2019-01-13T09:40:32.800Z,99.99
2019-01-13T09:41:32.859Z,99.99
2019-01-13T09:42:32.919Z,99.99
2019-01-13T09:43:32.963Z,99.99
2019-01-13T09:44:33.004Z,99.99
2019-01-13T09:45:33.158Z,99.99
2019-01-13T09:46:33.106Z,99.99
2019-01-13T09:47:33.167Z,99.99
2019-01-13T09:48:33.218Z,99.99
2019-01-13T09:49:33.239Z,99.99
2019-01-13T09:50:33.318Z,99.99
2019-01-13T09:51:33.450Z,99.99
2019-01-13T09:52:33.408Z,99.99
2019-01-13T09:53:33.443Z,99.99
2019-01-13T09:54:33.513Z,99.99
2019-01-13T09:55:33.538Z,99.99
2019-01-13T09:56:33.614Z,99.99
2019-01-13T09:57:33.652Z,99.99
2019-01-13T09:58:33.684Z,99.99
2019-01-13T09:59:33.734Z,99.99
2019-01-13T10:00:33.817Z,99.99
2019-01-13T10:01:33.840Z,99.99
2019-01-13T10:02:33.882Z,99.99
2019-01-13T10:03:33.935Z,99.99
2019-01-13T10:04:34.001Z,99.99
2019-01-13T10:05:34.043Z,99.99
2019-01-13T10:06:34.075Z,99.99
2019-01-13T10:07:34.147Z,99.99
2019-01-13T10:08:34.189Z,99.99
2019-01-13T10:09:34.229Z,98.73
2019-01-13T10:10:34.307Z,96.83
2019-01-13T10:11:34.342Z,95.62
2019-01-13T10:12:34.380Z,95.32
2019-01-13T10:13:34.464Z,95.32
2019-01-13T10:14:34.490Z,95.28
2019-01-13T10:15:34.535Z,94.84
2019-01-13T10:16:34.610Z,96.15
2019-01-13T10:17:34.656Z,96.20
2019-01-13T10:18:34.700Z,95.62
2019-01-13T10:19:34.752Z,95.13
2019-01-13T10:20:36.318Z,93.91
2019-01-13T10:21:34.873Z,93.52
2019-01-13T10:22:34.950Z,93.48
2019-01-13T10:23:35.103Z,91.57
2019-01-13T10:24:35.002Z,89.07
2019-01-13T10:25:35.111Z,87.84
2019-01-13T10:26:35.129Z,86.23
2019-01-13T10:27:35.172Z,85.02
2019-01-13T10:28:35.212Z,86.98
2019-01-13T10:29:35.277Z,88.59
2019-01-13T10:30:35.318Z,89.72
2019-01-13T10:31:35.377Z,91.24
2019-01-13T10:32:35.442Z,90.59
2019-01-13T10:33:35.466Z,88.69
2019-01-13T10:34:35.558Z,87.85
2019-01-13T10:35:35.590Z,86.73
2019-01-13T10:36:35.662Z,85.80
2019-01-13T10:37:35.704Z,83.89
2019-01-13T10:38:35.755Z,82.89
2019-01-13T10:39:35.812Z,81.07
2019-01-13T10:40:35.867Z,80.23
2019-01-13T10:41:35.939Z,77.61
2019-01-13T10:42:36.004Z,75.76
2019-01-13T10:43:36.032Z,72.75
2019-01-13T10:44:36.102Z,72.13
2019-01-13T10:45:36.146Z,70.50
2019-01-13T10:46:36.197Z,71.01
2019-01-13T10:47:36.262Z,71.37
2019-01-13T10:48:36.308Z,71.93
2019-01-13T10:49:36.352Z,73.07
2019-01-13T10:50:36.447Z,72.81
2019-01-13T10:51:36.484Z,72.52
2019-01-13T10:52:36.517Z,71.67
2019-01-13T10:53:36.574Z,70.95
2019-01-13T10:54:36.660Z,69.35
2019-01-13T10:55:36.706Z,67.08
2019-01-13T10:56:36.735Z,66.10
2019-01-13T10:57:36.818Z,66.14
2019-01-13T10:58:36.883Z,67.45
2019-01-13T10:59:36.926Z,68.13
2019-01-13T11:00:36.985Z,68.13
2019-01-13T11:01:37.066Z,68.04
2019-01-13T11:02:37.112Z,70.03
2019-01-13T11:03:37.193Z,70.36
2019-01-13T11:04:37.214Z,72.25
2019-01-13T11:05:37.285Z,73.23
2019-01-13T11:06:37.347Z,73.13
2019-01-13T11:07:37.396Z,73.62
2019-01-13T11:08:37.465Z,74.02
2019-01-13T11:09:37.522Z,72.36
2019-01-13T11:10:37.566Z,70.03
2019-01-13T11:11:37.625Z,68.86
2019-01-13T11:12:37.668Z,66.03
2019-01-13T11:13:38.854Z,65.91
2019-01-13T11:14:37.797Z,64.46
2019-01-13T11:15:37.884Z,63.60
2019-01-13T11:16:37.895Z,63.27
2019-01-13T11:17:37.961Z,61.85
2019-01-13T11:18:38.094Z,60.52
2019-01-13T11:19:38.092Z,59.00
2019-01-13T11:20:38.212Z,57.67
2019-01-13T11:21:38.250Z,57.54
2019-01-13T11:22:38.267Z,58.07
2019-01-13T11:23:38.317Z,58.74
2019-01-13T11:24:38.364Z,60.00
2019-01-13T11:25:38.434Z,58.72
2019-01-13T11:26:38.477Z,60.41
2019-01-13T11:27:38.574Z,61.33
2019-01-13T11:28:38.633Z,62.32
2019-01-13T11:29:38.693Z,61.93
2019-01-13T11:30:38.721Z,62.38
2019-01-13T11:31:38.797Z,63.54
2019-01-13T11:32:38.852Z,64.10
2019-01-13T11:33:38.900Z,64.32
2019-01-13T11:34:38.975Z,62.88
2019-01-13T11:35:39.031Z,62.15
2019-01-13T11:36:39.114Z,61.03
2019-01-13T11:37:39.158Z,59.31
2019-01-13T11:38:39.263Z,58.87
2019-01-13T11:39:39.289Z,57.27
2019-01-13T11:40:39.354Z,55.71
2019-01-13T11:41:39.387Z,55.24
2019-01-13T11:42:39.466Z,55.32
2019-01-13T11:43:39.509Z,55.32
2019-01-13T11:44:39.598Z,56.95
2019-01-13T11:45:39.642Z,56.69
2019-01-13T11:46:39.696Z,56.49
2019-01-13T11:47:39.771Z,57.02
2019-01-13T11:48:39.841Z,56.42
2019-01-13T11:49:39.892Z,56.52
2019-01-13T11:50:39.963Z,56.35
2019-01-13T11:51:39.998Z,55.51
2019-01-13T11:52:40.075Z,54.47
2019-01-13T11:53:40.128Z,52.47
2019-01-13T11:54:40.205Z,50.90
2019-01-13T11:55:40.253Z,51.12
2019-01-13T11:56:40.335Z,50.38
2019-01-13T11:57:40.385Z,51.57
2019-01-13T11:58:40.455Z,51.30
2019-01-13T11:59:40.508Z,50.82
2019-01-13T12:00:40.561Z,50.15
2019-01-13T12:01:40.632Z,50.01
2019-01-13T12:02:40.707Z,51.05
2019-01-13T12:03:40.777Z,51.89
2019-01-13T12:04:40.812Z,53.83
2019-01-13T12:05:40.876Z,54.39
2019-01-13T12:06:40.962Z,54.10
2019-01-13T12:07:41.012Z,54.25
2019-01-13T12:08:41.077Z,52.61
2019-01-13T12:09:41.123Z,51.65
2019-01-13T12:10:41.204Z,52.42
2019-01-13T12:11:41.247Z,54.32
2019-01-13T12:12:41.304Z,54.60
2019-01-13T12:13:41.408Z,54.52
2019-01-13T12:14:41.437Z,53.41
2019-01-13T12:15:41.514Z,54.55
2019-01-13T12:16:41.584Z,52.84
2019-01-13T12:17:41.642Z,51.67
2019-01-13T12:18:41.697Z,51.20
2019-01-13T12:19:41.753Z,50.33
2019-01-13T12:20:41.812Z,49.85
2019-01-13T12:21:41.898Z,49.58
2019-01-13T12:22:41.957Z,48.31
2019-01-13T12:23:42.038Z,47.86
2019-01-13T12:24:42.068Z,47.66
2019-01-13T12:25:42.335Z,47.93
2019-01-13T12:26:42.199Z,48.11
2019-01-13T12:27:42.247Z,48.01
2019-01-13T12:28:42.332Z,47.33
2019-01-13T12:29:42.405Z,48.04
2019-01-13T12:30:42.478Z,50.85
2019-01-13T12:31:42.500Z,51.28
2019-01-13T12:32:42.594Z,52.86
2019-01-13T12:33:42.634Z,53.88
2019-01-13T12:34:42.704Z,52.54
2019-01-13T12:35:42.762Z,52.76
2019-01-13T12:36:42.809Z,54.20
2019-01-13T12:37:42.873Z,52.84
2019-01-13T12:38:42.944Z,51.32
2019-01-13T12:39:43.019Z,50.16
2019-01-13T12:40:43.074Z,50.38
2019-01-13T12:41:43.179Z,49.71
2019-01-13T12:42:43.205Z,49.43
2019-01-13T12:43:43.276Z,49.36
2019-01-13T12:44:43.348Z,49.43
2019-01-13T12:45:43.451Z,49.26
2019-01-13T12:46:43.466Z,49.01
2019-01-13T12:47:43.545Z,49.76
2019-01-13T12:48:43.611Z,51.45
2019-01-13T12:49:43.657Z,52.69
2019-01-13T12:50:43.717Z,54.12
2019-01-13T12:51:43.789Z,54.98
2019-01-13T12:52:43.828Z,54.44
2019-01-13T12:53:43.918Z,53.11